Terminal Aerodrome Forecast
Issued by NWS

Home | Current Version | Previous Version | Text Only | Print | Product List | Glossary On
Versions: 1 2 3 4 5 6 7 8 9 10 11 12 13 14 15 16 17 18 19 20 21 22
000
FTUS43 KGRB 260520
TAFMTW
TAF
KMTW 260520Z 2606/2706 20009KT 6SM BR VCSH SCT050 SCT100
      WS015/24040KT
     FM261100 18005KT 5SM BR SCT012 BKN200
      TEMPO 2611/2613 2SM BR BKN012
     FM261300 18009KT P6SM SCT040 BKN120
     FM261700 15012KT 6SM -SHRA BR BKN035 BKN070
     FM262200 13010KT 4SM -SHRA BR BKN015 OVC035
     FM270400 23009KT 5SM BR VCSH BKN009 OVC030 WS015/25040KT=

USA.gov is the U.S. government's official web portal to all federal, state and local government web resources and services.